Time;durP1;ratioP1;P1;durP2;ratioP2;P2;SDS_P1;SDS_P2;PMS_P1;PMS_P2;Temp;Humidity;BMP_temperature;BMP_pressure;BME280_temperature;BME280_humidity;BME280_pressure;Samples;Min_cycle;Max_cycle;Signal;HPM_P1;HPM_P2
2023/06/29 00:01:27;;;;;;;3.60;3.40;;;;;;;18.12;97.34;99449.25;5032241;28;20258;-71
2023/06/29 00:03:54;;;;;;;3.50;3.30;;;;;;;18.06;96.79;99447.56;5031918;28;20599;-70
2023/06/29 00:06:22;;;;;;;3.70;3.50;;;;;;;18.11;98.38;99427.97;5032124;28;20745;-70
2023/06/29 00:08:49;;;;;;;3.40;3.20;;;;;;;18.08;95.56;99449.97;5032339;28;20626;-70
2023/06/29 00:11:16;;;;;;;3.20;2.97;;;;;;;18.16;95.33;99444.19;5032324;28;20200;-71
2023/06/29 00:13:43;;;;;;;3.73;3.43;;;;;;;18.15;95.61;99439.88;5031718;28;20225;-71
2023/06/29 00:16:09;;;;;;;3.40;3.20;;;;;;;18.10;95.19;99427.19;5032336;28;20191;-71
2023/06/29 00:18:36;;;;;;;3.63;3.33;;;;;;;18.14;94.71;99428.31;5032028;28;20227;-71
2023/06/29 00:21:03;;;;;;;3.40;3.20;;;;;;;18.14;94.21;99419.44;5031844;28;20219;-70
2023/06/29 00:23:34;;;;;;;2.73;2.63;;;;;;;18.01;96.71;99427.84;5032278;28;20203;-70
2023/06/29 00:26:02;;;;;;;3.13;2.93;;;;;;;18.00;96.08;99437.75;5032254;28;20203;-71
2023/06/29 00:28:29;;;;;;;3.37;3.17;;;;;;;18.06;96.90;99439.47;5031921;28;20211;-71
2023/06/29 00:30:56;;;;;;;4.00;3.70;;;;;;;17.86;95.75;99446.41;5031044;28;20221;-72
2023/06/29 00:33:23;;;;;;;3.17;2.67;;;;;;;17.86;97.07;99449.09;5031939;28;20188;-72
2023/06/29 00:35:49;;;;;;;3.43;3.17;;;;;;;18.00;97.28;99458.44;5031787;28;20664;-71
2023/06/29 00:38:16;;;;;;;3.53;3.33;;;;;;;17.87;96.71;99453.38;5031822;28;20549;-71
2023/06/29 00:40:44;;;;;;;3.33;3.13;;;;;;;17.91;95.72;99460.72;5031086;28;20762;-70
2023/06/29 00:43:11;;;;;;;3.17;2.97;;;;;;;17.71;96.23;99460.38;5028985;28;20247;-71
2023/06/29 00:45:38;;;;;;;5.47;3.30;;;;;;;17.55;97.04;99460.34;5031908;28;20197;-71
2023/06/29 00:48:04;;;;;;;3.40;3.20;;;;;;;17.46;96.42;99456.44;5031996;28;20189;-71
2023/06/29 00:50:32;;;;;;;3.70;3.40;;;;;;;17.44;97.51;99461.25;5032424;28;20224;-71
2023/06/29 00:52:59;;;;;;;4.77;3.33;;;;;;;17.38;98.60;99459.47;5035836;28;20267;-71
2023/06/29 00:55:27;;;;;;;5.23;3.87;;;;;;;17.43;99.75;99460.41;5036017;28;20201;-70
2023/06/29 00:57:55;;;;;;;3.33;3.13;;;;;;;17.38;100.00;99443.34;5035941;28;20193;-70
2023/06/29 01:00:22;;;;;;;3.37;3.17;;;;;;;17.22;100.00;99450.31;5035760;28;20201;-70
2023/06/29 01:02:49;;;;;;;3.57;3.37;;;;;;;17.16;100.00;99451.28;5034895;28;20218;-71
2023/06/29 01:05:17;;;;;;;3.20;3.00;;;;;;;17.10;100.00;99462.13;5035632;28;20194;-71
2023/06/29 01:07:52;;;;;;;3.33;3.13;;;;;;;16.99;100.00;99460.31;5036029;28;20224;-71
2023/06/29 01:10:24;;;;;;;3.80;3.23;;;;;;;17.05;100.00;99448.63;5035158;28;20268;-71
2023/06/29 01:12:52;;;;;;;3.53;3.23;;;;;;;17.08;100.00;99453.53;5035514;28;20284;-70
2023/06/29 01:15:22;;;;;;;3.90;3.50;;;;;;;17.10;100.00;99452.22;5035250;28;20249;-70
2023/06/29 01:17:53;;;;;;;3.87;3.40;;;;;;;17.13;100.00;99459.00;5035801;28;20251;-69
2023/06/29 01:20:20;;;;;;;3.60;3.40;;;;;;;17.12;100.00;99460.06;5034460;28;20196;-70
2023/06/29 01:22:56;;;;;;;3.43;3.13;;;;;;;17.19;100.00;99461.53;5035523;28;20280;-70
2023/06/29 01:25:25;;;;;;;3.17;2.97;;;;;;;17.03;100.00;99461.50;5034849;28;20196;-70
2023/06/29 01:27:51;;;;;;;2.53;2.40;;;;;;;17.05;100.00;99465.56;5034596;28;20200;-71
2023/06/29 01:30:18;;;;;;;4.97;3.10;;;;;;;17.03;100.00;99458.81;5034433;28;20189;-70
2023/06/29 01:32:45;;;;;;;3.67;3.30;;;;;;;17.02;100.00;99454.50;5034630;28;20569;-70
2023/06/29 01:35:12;;;;;;;3.80;3.60;;;;;;;16.92;100.00;99448.91;5034819;28;20542;-71
2023/06/29 01:37:44;;;;;;;3.47;3.27;;;;;;;16.87;100.00;99446.94;5034324;28;20186;-69
2023/06/29 01:40:13;;;;;;;3.60;3.40;;;;;;;16.82;100.00;99443.34;5034844;28;20181;-70
2023/06/29 01:42:42;;;;;;;5.80;3.30;;;;;;;16.78;100.00;99434.94;5034681;28;20215;-70
2023/06/29 01:45:11;;;;;;;4.20;3.80;;;;;;;16.95;100.00;99430.44;5034375;28;20191;-70
2023/06/29 01:47:38;;;;;;;3.53;3.33;;;;;;;16.87;100.00;99436.19;5034589;28;20205;-69
2023/06/29 01:50:06;;;;;;;3.30;3.10;;;;;;;16.78;100.00;99458.28;5033671;28;20554;-70
2023/06/29 01:52:33;;;;;;;3.57;3.37;;;;;;;16.74;100.00;99465.19;5033767;28;20255;-70
2023/06/29 01:54:59;;;;;;;3.47;3.03;;;;;;;16.53;100.00;99463.91;5034615;28;20193;-70
2023/06/29 01:57:26;;;;;;;3.53;3.33;;;;;;;16.45;100.00;99464.25;5033765;28;20193;-72
2023/06/29 01:59:54;;;;;;;4.00;3.43;;;;;;;16.51;100.00;99457.16;5033444;28;20657;-71
2023/06/29 02:02:21;;;;;;;4.17;3.93;;;;;;;16.50;100.00;99450.16;5033457;28;20213;-70
2023/06/29 02:04:47;;;;;;;3.70;3.50;;;;;;;16.62;100.00;99441.03;5031387;28;20566;-70
2023/06/29 02:07:14;;;;;;;3.40;3.17;;;;;;;16.61;100.00;99441.28;5033911;28;20248;-70
2023/06/29 02:09:41;;;;;;;3.50;3.20;;;;;;;16.57;100.00;99448.97;5033612;28;20192;-70
2023/06/29 02:12:09;;;;;;;3.27;3.00;;;;;;;16.52;100.00;99448.03;5033047;28;20198;-70
2023/06/29 02:14:36;;;;;;;3.70;3.40;;;;;;;16.63;100.00;99455.28;5034285;28;20193;-71
2023/06/29 02:17:04;;;;;;;3.13;3.00;;;;;;;16.74;100.00;99457.13;5033541;28;20574;-71
2023/06/29 02:19:31;;;;;;;3.30;3.10;;;;;;;16.85;100.00;99448.22;5034461;28;20220;-69
2023/06/29 02:21:58;;;;;;;3.87;3.67;;;;;;;16.89;100.00;99438.63;5034384;28;20282;-69
2023/06/29 02:24:24;;;;;;;3.50;3.30;;;;;;;16.86;100.00;99447.97;5034409;28;20201;-69
2023/06/29 02:26:51;;;;;;;3.90;3.47;;;;;;;16.80;100.00;99440.06;5033856;28;20186;-68
2023/06/29 02:29:18;;;;;;;3.40;3.00;;;;;;;16.85;100.00;99445.53;5034166;28;20194;-69
2023/06/29 02:31:44;;;;;;;3.50;3.23;;;;;;;16.85;100.00;99442.84;5034141;28;20290;-69
2023/06/29 02:34:12;;;;;;;3.17;3.00;;;;;;;16.86;100.00;99444.50;5033948;28;20198;-69
2023/06/29 02:36:40;;;;;;;3.50;3.30;;;;;;;16.73;100.00;99450.94;5034109;28;20189;-69
2023/06/29 02:39:07;;;;;;;4.90;3.57;;;;;;;16.69;100.00;99438.22;5032661;28;20246;-69
2023/06/29 02:41:34;;;;;;;3.63;3.33;;;;;;;16.86;100.00;99444.50;5033569;28;20641;-69
2023/06/29 02:44:00;;;;;;;3.50;3.30;;;;;;;16.84;100.00;99444.75;5033681;28;20248;-69
2023/06/29 02:46:27;;;;;;;5.10;3.30;;;;;;;16.80;100.00;99437.38;5033486;28;20262;-69
2023/06/29 02:48:54;;;;;;;3.43;3.23;;;;;;;16.69;100.00;99446.28;5032639;28;20252;-70
2023/06/29 02:51:22;;;;;;;2.97;2.87;;;;;;;16.76;99.64;99438.91;5033017;28;20198;-70
2023/06/29 02:53:48;;;;;;;3.53;3.03;;;;;;;16.77;98.89;99440.53;5033525;28;20213;-70
2023/06/29 02:56:15;;;;;;;3.07;2.93;;;;;;;16.79;98.25;99431.22;5032943;28;20189;-70
2023/06/29 02:58:42;;;;;;;3.57;3.37;;;;;;;16.84;98.17;99425.97;5032182;28;20731;-68
2023/06/29 03:01:08;;;;;;;3.17;2.97;;;;;;;16.88;97.73;99437.84;5031093;28;20193;-71
2023/06/29 03:03:35;;;;;;;3.10;2.90;;;;;;;16.95;97.46;99448.44;5032980;28;20195;-71
2023/06/29 03:06:02;;;;;;;3.40;3.10;;;;;;;16.94;97.27;99450.28;5032772;28;20254;-69
2023/06/29 03:08:30;;;;;;;3.17;2.97;;;;;;;16.94;96.70;99446.81;5032054;28;20210;-71
2023/06/29 03:10:57;;;;;;;3.03;2.80;;;;;;;16.91;96.45;99444.59;5030699;28;20193;-71
2023/06/29 03:13:23;;;;;;;3.10;2.90;;;;;;;16.90;96.63;99442.97;5032724;28;20227;-71
2023/06/29 03:15:51;;;;;;;4.00;2.80;;;;;;;16.94;96.07;99452.19;5032257;28;20201;-70
2023/06/29 03:18:17;;;;;;;3.13;2.97;;;;;;;16.97;94.89;99449.00;5032355;28;20194;-71
2023/06/29 03:20:44;;;;;;;3.57;3.37;;;;;;;16.92;93.80;99438.16;5032857;28;20193;-71
2023/06/29 03:23:11;;;;;;;3.53;3.23;;;;;;;17.04;94.09;99447.00;5032674;28;20221;-70
2023/06/29 03:25:39;;;;;;;3.23;3.00;;;;;;;17.14;93.34;99441.81;5032168;28;20251;-70
2023/06/29 03:28:05;;;;;;;3.43;3.03;;;;;;;17.27;92.34;99446.94;5032383;28;20188;-70
2023/06/29 03:30:32;;;;;;;3.97;2.77;;;;;;;17.31;91.48;99453.44;5032141;28;20727;-70
2023/06/29 03:32:59;;;;;;;2.77;2.67;;;;;;;17.37;92.08;99452.47;5032379;28;20575;-70
2023/06/29 03:35:26;;;;;;;2.60;2.30;;;;;;;17.34;91.34;99458.31;5032224;28;20196;-70
2023/06/29 03:37:53;;;;;;;4.37;2.83;;;;;;;17.37;91.03;99460.53;5032494;28;20278;-71
2023/06/29 03:40:19;;;;;;;2.70;2.60;;;;;;;17.39;90.83;99463.81;5032516;28;20241;-71
2023/06/29 03:42:47;;;;;;;3.33;2.70;;;;;;;17.34;90.33;99469.06;5031453;28;20217;-71
2023/06/29 03:45:14;;;;;;;3.53;3.20;;;;;;;17.44;89.56;99469.31;5032031;28;20193;-70
2023/06/29 03:47:41;;;;;;;2.40;2.20;;;;;;;17.49;88.47;99475.59;5032291;28;20197;-70
2023/06/29 03:50:08;;;;;;;2.60;2.40;;;;;;;17.58;88.99;99465.25;5032821;28;20193;-71
2023/06/29 03:52:35;;;;;;;5.67;2.70;;;;;;;17.55;87.66;99466.53;5031810;28;20201;-71
2023/06/29 03:55:01;;;;;;;5.37;2.70;;;;;;;17.68;87.95;99481.56;5032269;28;20252;-70
2023/06/29 03:57:29;;;;;;;4.43;3.13;;;;;;;17.73;87.04;99485.13;5032785;28;20193;-71
2023/06/29 03:59:57;;;;;;;2.97;2.77;;;;;;;17.83;86.53;99485.31;5032625;28;20190;-71
2023/06/29 04:02:23;;;;;;;4.97;2.53;;;;;;;17.84;86.47;99495.00;5031182;28;20648;-70
2023/06/29 04:04:50;;;;;;;2.77;2.10;;;;;;;17.81;86.38;99498.16;5032404;28;20200;-69
2023/06/29 04:07:17;;;;;;;2.60;2.40;;;;;;;17.82;84.91;99496.31;5032395;28;20315;-68
2023/06/29 04:09:43;;;;;;;2.97;2.77;;;;;;;17.88;85.12;99492.66;5032227;28;20198;-70
2023/06/29 04:12:10;;;;;;;6.30;2.87;;;;;;;17.91;85.07;99494.84;5031409;28;20745;-69
2023/06/29 04:14:37;;;;;;;4.07;2.53;;;;;;;18.14;83.21;99510.84;5032409;28;20232;-69
2023/06/29 04:17:05;;;;;;;4.57;2.40;;;;;;;18.42;82.73;99519.66;5032009;28;20189;-69
2023/06/29 04:19:32;;;;;;;2.77;2.30;;;;;;;18.63;81.65;99510.03;5032372;28;20259;-70
2023/06/29 04:21:58;;;;;;;3.30;2.93;;;;;;;18.91;80.05;99520.66;5031198;28;20226;-70
2023/06/29 04:24:25;;;;;;;2.63;2.43;;;;;;;19.20;78.04;99519.41;5031939;28;20666;-70
2023/06/29 04:26:52;;;;;;;2.23;2.13;;;;;;;19.42;77.81;99515.66;5031654;28;20669;-70
2023/06/29 04:29:18;;;;;;;4.00;2.60;;;;;;;19.39;77.36;99512.63;5031840;28;20622;-70
2023/06/29 04:31:45;;;;;;;5.27;2.60;;;;;;;19.36;77.84;99513.16;5031454;28;20232;-70
2023/06/29 04:34:16;;;;;;;5.10;2.90;;;;;;;19.63;76.32;99527.47;5032061;28;20190;-69
2023/06/29 04:36:46;;;;;;;3.20;2.87;;;;;;;19.75;76.32;99522.75;5032242;28;20271;-70
2023/06/29 04:39:13;;;;;;;5.40;2.87;;;;;;;19.63;76.33;99536.38;5032033;28;20235;-70
2023/06/29 04:41:40;;;;;;;2.50;2.40;;;;;;;19.45;76.76;99530.50;5030640;28;20200;-71
2023/06/29 04:44:08;;;;;;;2.90;2.63;;;;;;;19.56;76.77;99532.25;5031637;28;20577;-72
2023/06/29 04:46:37;;;;;;;7.20;3.00;;;;;;;19.37;77.41;99528.25;5032243;28;20204;-71
2023/06/29 04:49:06;;;;;;;3.00;2.70;;;;;;;19.20;78.24;99520.19;5031954;28;20193;-73
2023/06/29 04:51:35;;;;;;;3.17;2.97;;;;;;;19.28;78.60;99524.38;5030997;28;20197;-72
2023/06/29 04:54:02;;;;;;;3.30;3.00;;;;;;;19.46;78.02;99529.44;5031765;28;20287;-70
2023/06/29 04:56:29;;;;;;;3.33;2.60;;;;;;;19.65;77.10;99536.13;5031794;28;20680;-70
2023/06/29 04:58:56;;;;;;;3.53;3.23;;;;;;;19.58;77.15;99548.97;5031876;28;20290;-68
2023/06/29 05:01:22;;;;;;;2.90;2.70;;;;;;;19.35;78.22;99538.47;5031076;28;20280;-72
2023/06/29 05:03:49;;;;;;;2.83;2.63;;;;;;;19.48;79.07;99538.88;5030343;28;20269;-72
2023/06/29 05:06:16;;;;;;;3.20;3.00;;;;;;;19.34;78.75;99547.63;5031337;28;20205;-70
2023/06/29 05:08:44;;;;;;;4.50;4.10;;;;;;;19.44;78.23;99542.38;5031221;28;20251;-74
2023/06/29 05:11:10;;;;;;;3.03;2.67;;;;;;;19.47;78.23;99544.53;5030721;28;20192;-68
2023/06/29 05:13:37;;;;;;;3.30;3.00;;;;;;;19.70;78.27;99555.03;5030795;28;20633;-70
2023/06/29 05:16:05;;;;;;;3.10;2.80;;;;;;;19.67;77.08;99563.63;5031558;28;20201;-70
2023/06/29 05:18:31;;;;;;;3.50;3.20;;;;;;;19.53;77.42;99552.41;5031249;28;20196;-68
2023/06/29 05:20:58;;;;;;;2.83;2.57;;;;;;;19.43;77.41;99554.19;5030717;28;20186;-69
2023/06/29 05:23:25;;;;;;;6.33;3.03;;;;;;;19.24;78.72;99558.28;5030845;28;20239;-68
2023/06/29 05:25:53;;;;;;;2.97;2.77;;;;;;;19.20;78.77;99554.41;5030317;28;20244;-68
2023/06/29 05:28:20;;;;;;;3.27;2.97;;;;;;;19.31;78.50;99558.88;5030417;28;20252;-68
2023/06/29 05:30:46;;;;;;;3.03;2.83;;;;;;;19.43;78.67;99556.88;5028964;28;20279;-68
2023/06/29 05:33:14;;;;;;;6.07;2.90;;;;;;;20.09;75.61;99573.53;5028998;28;20194;-68
2023/06/29 05:35:41;;;;;;;3.17;3.00;;;;;;;20.45;73.10;99585.47;5031183;28;20255;-68
2023/06/29 05:38:08;;;;;;;4.47;3.20;;;;;;;20.55;72.62;99577.47;5031728;28;20197;-69
2023/06/29 05:40:34;;;;;;;3.00;2.80;;;;;;;21.30;70.44;99585.25;5033240;28;20255;-68
2023/06/29 05:43:02;;;;;;;3.20;3.03;;;;;;;22.35;66.39;99583.69;5033609;28;20278;-69
2023/06/29 05:45:29;;;;;;;3.97;2.47;;;;;;;23.27;62.47;99584.16;5034978;28;20251;-68
2023/06/29 05:47:56;;;;;;;3.90;2.70;;;;;;;24.20;60.11;99591.31;5034640;28;20267;-68
2023/06/29 05:50:22;;;;;;;2.93;2.73;;;;;;;24.57;57.63;99602.44;5035029;28;20637;-69
2023/06/29 05:52:49;;;;;;;4.17;2.70;;;;;;;25.10;55.71;99602.53;5034401;28;20195;-69
2023/06/29 05:55:16;;;;;;;2.77;2.40;;;;;;;25.35;53.93;99600.38;5034834;28;20195;-70
2023/06/29 05:57:43;;;;;;;2.73;2.63;;;;;;;25.53;53.41;99604.25;5034027;28;20205;-69
2023/06/29 06:00:12;;;;;;;2.80;2.60;;;;;;;25.83;52.71;99598.41;5034764;28;20292;-69
2023/06/29 06:02:39;;;;;;;2.67;2.57;;;;;;;25.96;51.85;99592.31;5034429;28;20586;-69
2023/06/29 06:05:07;;;;;;;3.80;2.50;;;;;;;26.23;50.73;99593.25;5034555;28;20224;-69
2023/06/29 06:07:35;;;;;;;2.67;2.47;;;;;;;25.98;49.71;99596.34;5034795;28;20189;-69
2023/06/29 06:10:02;;;;;;;5.17;2.53;;;;;;;25.84;50.58;99581.00;5034780;28;20193;-69
2023/06/29 06:12:28;;;;;;;4.23;2.67;;;;;;;25.88;51.43;99587.47;5034359;28;20738;-67
2023/06/29 06:14:55;;;;;;;3.10;2.77;;;;;;;26.14;50.46;99591.47;5034191;28;20572;-68
2023/06/29 06:17:23;;;;;;;2.43;2.33;;;;;;;26.38;50.98;99575.84;5034219;28;20588;-68
2023/06/29 06:19:50;;;;;;;4.50;2.70;;;;;;;26.65;50.27;99589.59;5034533;28;20263;-68
2023/06/29 06:22:17;;;;;;;10.77;3.43;;;;;;;26.70;49.40;99586.81;5034055;28;20232;-69
2023/06/29 06:24:43;;;;;;;2.83;2.63;;;;;;;27.08;49.42;99582.84;5034315;28;20197;-70
2023/06/29 06:27:10;;;;;;;3.73;2.80;;;;;;;27.46;47.69;99573.38;5034037;28;20670;-69
2023/06/29 06:29:37;;;;;;;2.80;2.70;;;;;;;27.08;46.96;99569.19;5033872;28;20198;-68
2023/06/29 06:32:04;;;;;;;4.80;2.60;;;;;;;27.04;45.67;99565.44;5034329;28;20252;-68
2023/06/29 06:34:32;;;;;;;2.73;2.40;;;;;;;27.24;47.83;99554.19;5034157;28;20193;-69
2023/06/29 06:36:59;;;;;;;3.10;2.43;;;;;;;27.51;46.39;99551.44;5033916;28;20320;-69
2023/06/29 06:39:26;;;;;;;3.80;2.47;;;;;;;27.08;46.05;99553.66;5034057;28;20193;-68
2023/06/29 06:41:53;;;;;;;3.07;2.70;;;;;;;27.15;46.75;99555.97;5033744;28;20205;-68
2023/06/29 06:44:19;;;;;;;11.07;2.17;;;;;;;27.04;46.51;99544.44;5033534;28;20283;-68
2023/06/29 06:46:46;;;;;;;4.07;2.40;;;;;;;26.83;48.66;99536.94;5033680;28;20212;-68
2023/06/29 06:49:13;;;;;;;6.40;2.63;;;;;;;26.83;50.08;99531.50;5033238;28;20197;-68
2023/06/29 06:51:41;;;;;;;3.07;2.67;;;;;;;26.91;47.58;99538.97;5033956;28;20280;-69
2023/06/29 06:54:08;;;;;;;5.03;2.80;;;;;;;26.89;46.57;99536.56;5033470;28;20684;-69
2023/06/29 06:56:37;;;;;;;3.17;2.53;;;;;;;27.04;47.84;99538.19;5033502;28;20688;-69
2023/06/29 06:59:04;;;;;;;6.23;2.70;;;;;;;26.91;47.91;99538.97;5033374;28;20735;-69
2023/06/29 07:01:30;;;;;;;2.73;2.63;;;;;;;26.76;47.78;99547.44;5033686;28;20193;-68
2023/06/29 07:03:57;;;;;;;3.10;2.80;;;;;;;26.79;46.11;99546.84;5033213;28;20225;-69
2023/06/29 07:06:24;;;;;;;3.90;2.73;;;;;;;27.07;45.99;99543.81;5033595;28;20669;-69
2023/06/29 07:08:52;;;;;;;5.27;2.67;;;;;;;27.08;46.22;99539.19;5033553;28;20255;-68
2023/06/29 07:11:18;;;;;;;4.73;3.00;;;;;;;27.00;45.80;99542.63;5033152;28;20711;-68
2023/06/29 07:13:45;;;;;;;3.07;2.87;;;;;;;26.83;45.39;99542.41;5033435;28;20254;-69
2023/06/29 07:16:13;;;;;;;4.30;2.50;;;;;;;26.79;45.58;99538.66;5033263;28;20243;-69
2023/06/29 07:18:47;;;;;;;2.63;2.43;;;;;;;26.41;45.48;99545.31;5033260;28;20255;-68
2023/06/29 07:21:14;;;;;;;5.60;2.73;;;;;;;26.37;46.52;99538.84;5033230;28;20250;-68
2023/06/29 07:23:40;;;;;;;2.60;2.50;;;;;;;26.77;46.55;99535.41;5033100;28;20287;-68
2023/06/29 07:26:08;;;;;;;2.50;2.30;;;;;;;27.10;46.01;99536.97;5030624;28;20243;-69
2023/06/29 07:28:35;;;;;;;2.77;2.40;;;;;;;27.12;44.64;99542.94;5029698;28;20193;-68
2023/06/29 07:31:02;;;;;;;2.90;2.80;;;;;;;27.77;43.96;99545.13;5022131;28;20222;-68
2023/06/29 07:33:30;;;;;;;6.13;2.43;;;;;;;27.83;42.70;99541.19;5029180;28;20255;-68
2023/06/29 07:35:56;;;;;;;3.67;2.40;;;;;;;27.98;42.68;99537.31;5014124;28;20198;-68
2023/06/29 07:38:23;;;;;;;9.50;2.67;;;;;;;27.69;43.34;99547.78;5013955;28;20241;-67
2023/06/29 07:40:50;;;;;;;2.43;2.33;;;;;;;27.33;42.86;99546.91;5013041;28;20194;-68
2023/06/29 07:43:18;;;;;;;4.53;3.20;;;;;;;27.57;43.94;99544.75;5022418;28;20339;-70
2023/06/29 07:45:45;;;;;;;21.60;3.70;;;;;;;27.44;42.77;99548.31;5032131;28;20271;-65
2023/06/29 07:48:11;;;;;;;3.23;2.60;;;;;;;27.50;45.77;99547.09;5016457;28;20784;-65
2023/06/29 07:50:38;;;;;;;3.03;2.37;;;;;;;27.34;43.13;99538.41;5027982;28;20255;-70
2023/06/29 07:53:05;;;;;;;3.03;2.30;;;;;;;27.43;42.36;99550.22;5031180;28;20566;-70
2023/06/29 07:55:32;;;;;;;2.97;2.77;;;;;;;27.37;43.54;99542.47;5031785;28;20201;-70
2023/06/29 07:57:58;;;;;;;5.97;2.53;;;;;;;26.73;44.39;99537.13;5031235;28;20588;-67
2023/06/29 08:00:27;;;;;;;4.80;2.50;;;;;;;26.81;44.04;99533.69;5028905;28;20201;-67
2023/06/29 08:02:53;;;;;;;3.67;2.60;;;;;;;27.00;44.61;99532.53;5030578;28;20201;-72
2023/06/29 08:05:22;;;;;;;3.40;2.90;;;;;;;27.60;43.81;99536.75;5024746;28;20244;-71
2023/06/29 08:07:49;;;;;;;6.20;2.60;;;;;;;27.19;43.46;99535.97;5030293;28;20201;-72
2023/06/29 08:10:16;;;;;;;2.40;2.30;;;;;;;27.46;44.08;99540.63;5030970;28;20740;-71
2023/06/29 08:12:43;;;;;;;3.00;2.80;;;;;;;27.64;43.25;99534.25;5031111;28;20551;-69
2023/06/29 08:15:10;;;;;;;2.73;2.00;;;;;;;28.17;43.34;99535.22;5030329;28;20244;-67
2023/06/29 08:17:38;;;;;;;2.27;2.10;;;;;;;28.70;41.85;99544.28;5029585;28;20676;-63
2023/06/29 08:20:09;;;;;;;3.23;2.90;;;;;;;28.42;40.15;99542.84;5029978;28;20255;-67
2023/06/29 08:22:38;;;;;;;5.70;2.57;;;;;;;28.22;40.78;99544.09;5026585;28;20185;-67
2023/06/29 08:25:06;;;;;;;10.53;2.40;;;;;;;28.28;41.25;99526.47;5030057;28;20225;-67
2023/06/29 08:27:32;;;;;;;3.00;2.00;;;;;;;29.22;40.24;99537.97;5029393;28;20247;-69
2023/06/29 08:29:59;;;;;;;2.13;2.00;;;;;;;28.38;38.90;99526.19;5028990;28;20193;-67
2023/06/29 08:32:26;;;;;;;3.80;2.33;;;;;;;28.64;39.08;99534.59;5030497;28;20295;-67
2023/06/29 08:34:54;;;;;;;3.53;2.10;;;;;;;28.80;38.02;99533.91;5030133;28;20193;-66
2023/06/29 08:37:21;;;;;;;2.73;2.43;;;;;;;28.36;39.47;99528.47;5030288;28;20255;-67
2023/06/29 08:39:47;;;;;;;2.90;2.60;;;;;;;28.58;39.76;99527.66;5030617;28;20280;-67
2023/06/29 08:42:14;;;;;;;5.13;2.63;;;;;;;27.98;39.41;99526.38;5029692;28;20975;-67
2023/06/29 08:44:41;;;;;;;5.70;2.37;;;;;;;28.10;40.45;99524.72;5030789;28;20212;-69
2023/06/29 08:47:09;;;;;;;3.13;2.50;;;;;;;28.37;40.98;99518.31;5030642;28;20247;-69
2023/06/29 08:49:36;;;;;;;8.17;2.67;;;;;;;28.82;38.94;99517.97;5030296;28;20670;-69
2023/06/29 08:52:05;;;;;;;4.07;2.30;;;;;;;28.61;39.52;99527.84;5030923;28;20568;-70
2023/06/29 08:54:32;;;;;;;3.20;2.40;;;;;;;28.79;39.70;99521.34;5030397;28;20197;-69
2023/06/29 08:57:01;;;;;;;10.83;2.60;;;;;;;29.37;38.92;99521.13;5029351;28;20685;-68
2023/06/29 08:59:28;;;;;;;10.13;2.47;;;;;;;29.30;38.40;99515.28;5030947;28;20201;-68
2023/06/29 09:01:57;;;;;;;2.50;2.40;;;;;;;29.80;37.54;99516.53;5030093;28;20197;-67
2023/06/29 09:04:25;;;;;;;4.20;2.10;;;;;;;29.65;38.28;99513.47;5030381;28;20219;-67
2023/06/29 09:06:53;;;;;;;2.23;2.00;;;;;;;29.64;37.61;99509.13;5030470;28;20280;-68
2023/06/29 09:09:21;;;;;;;3.73;2.37;;;;;;;30.25;37.60;99503.34;5031729;28;20204;-67
2023/06/29 09:11:48;;;;;;;3.33;2.00;;;;;;;29.94;36.42;99502.69;5032041;28;20657;-67
2023/06/29 09:14:14;;;;;;;2.67;2.30;;;;;;;29.19;37.41;99500.28;5034543;28;20197;-67
2023/06/29 09:16:50;;;;;;;10.73;2.80;;;;;;;28.89;38.84;99492.91;5033413;28;20739;-68
2023/06/29 09:19:17;;;;;;;2.87;2.20;;;;;;;28.80;38.43;99494.81;5034176;28;20183;-66
2023/06/29 09:21:47;;;;;;;2.43;2.33;;;;;;;28.69;40.11;99493.47;5034571;28;20323;-68
2023/06/29 09:24:16;;;;;;;4.20;2.60;;;;;;;28.91;39.38;99496.16;5034999;28;20225;-68
2023/06/29 09:26:44;;;;;;;9.40;3.10;;;;;;;28.66;40.96;99492.16;5034627;28;20198;-67
2023/06/29 09:29:10;;;;;;;3.97;2.60;;;;;;;29.03;38.38;99485.44;5034341;28;20243;-68
2023/06/29 09:31:38;;;;;;;4.83;3.57;;;;;;;28.98;37.79;99485.53;5033969;28;20312;-68
2023/06/29 09:34:19;;;;;;;4.00;2.17;;;;;;;29.26;37.81;99481.47;5033936;28;20262;-68
2023/06/29 09:36:47;;;;;;;9.50;3.00;;;;;;;29.43;39.44;99481.50;5029437;28;20197;-67
2023/06/29 09:39:13;;;;;;;3.93;2.30;;;;;;;29.93;36.58;99485.44;5033836;28;20661;-68
2023/06/29 09:41:49;;;;;;;2.63;2.23;;;;;;;30.17;35.85;99479.50;5034676;28;20324;-69
2023/06/29 09:44:19;;;;;;;5.67;2.30;;;;;;;29.63;36.43;99467.22;5032871;28;20239;-67
2023/06/29 09:46:46;;;;;;;2.47;2.27;;;;;;;29.65;36.46;99484.16;5032710;28;20189;-68
2023/06/29 09:49:13;;;;;;;5.63;1.77;;;;;;;29.63;35.96;99472.72;5032789;28;20193;-68
2023/06/29 09:51:41;;;;;;;10.27;2.17;;;;;;;29.84;36.66;99487.38;5033831;28;20205;-67
2023/06/29 09:54:11;;;;;;;1.87;1.77;;;;;;;30.19;36.13;99478.03;5033220;28;20197;-70
2023/06/29 09:56:38;;;;;;;2.67;2.00;;;;;;;30.39;36.66;99473.81;5032867;28;20265;-69
2023/06/29 09:59:09;;;;;;;7.20;3.03;;;;;;;30.58;36.46;99471.50;5032077;28;20657;-69
2023/06/29 10:01:36;;;;;;;11.70;2.63;;;;;;;30.58;34.47;99474.25;5030692;28;20181;-69
2023/06/29 10:04:04;;;;;;;7.87;2.60;;;;;;;30.70;34.13;99466.97;5025231;28;20302;-69
2023/06/29 10:06:37;;;;;;;2.40;2.00;;;;;;;30.30;33.87;99468.38;5030443;28;20655;-70
2023/06/29 10:09:05;;;;;;;2.00;1.80;;;;;;;30.14;32.55;99469.19;5033155;28;20224;-70
2023/06/29 10:11:35;;;;;;;3.03;1.80;;;;;;;30.20;33.04;99457.72;5033054;28;20193;-70
2023/06/29 10:14:05;;;;;;;3.57;1.97;;;;;;;29.37;35.50;99460.91;5033109;28;20669;-69
2023/06/29 10:16:35;;;;;;;6.13;2.00;;;;;;;29.38;35.75;99458.94;5032783;28;20194;-69
2023/06/29 10:19:09;;;;;;;8.20;2.10;;;;;;;30.19;34.77;99449.81;5032720;28;20186;-69
2023/06/29 10:21:37;;;;;;;8.03;2.43;;;;;;;30.52;32.62;99432.47;5015416;28;20193;-69
2023/06/29 10:24:05;;;;;;;3.83;2.30;;;;;;;30.30;32.80;99443.69;5031436;28;20223;-71
2023/06/29 10:26:32;;;;;;;3.17;1.80;;;;;;;30.27;35.89;99438.84;5030686;28;20251;-69
2023/06/29 10:28:59;;;;;;;2.07;1.87;;;;;;;30.54;34.35;99440.38;5033038;28;20193;-69
2023/06/29 10:31:32;;;;;;;8.07;2.07;;;;;;;30.44;34.11;99444.28;5032805;28;20229;-67
2023/06/29 10:34:00;;;;;;;6.20;2.07;;;;;;;30.83;34.70;99444.00;5032027;28;20193;-66
2023/06/29 10:36:43;;;;;;;4.87;2.03;;;;;;;30.96;32.19;99448.47;5032232;28;20280;-65
2023/06/29 10:39:40;;;;;;;2.73;2.00;;;;;;;31.01;31.58;99448.28;5029731;28;20182;-65
2023/06/29 10:42:12;;;;;;;3.87;2.13;;;;;;;31.23;31.77;99437.03;5032970;28;20654;-65
2023/06/29 10:44:39;;;;;;;3.47;2.03;;;;;;;30.84;32.49;99440.13;5032171;28;20248;-63
2023/06/29 10:47:06;;;;;;;3.70;1.80;;;;;;;30.19;32.53;99436.94;5031292;28;20194;-64
2023/06/29 10:49:34;;;;;;;10.50;2.00;;;;;;;29.82;33.80;99434.84;5032760;28;20193;-64
2023/06/29 10:52:03;;;;;;;5.00;1.80;;;;;;;29.50;33.66;99435.31;5032343;28;20678;-64
2023/06/29 10:54:30;;;;;;;3.30;2.10;;;;;;;29.27;33.99;99431.06;5033086;28;20696;-65
2023/06/29 10:56:58;;;;;;;19.80;3.27;;;;;;;29.23;34.30;99433.66;5031239;28;20683;-65
2023/06/29 10:59:26;;;;;;;1.90;1.63;;;;;;;29.27;34.73;99440.09;5031707;28;20186;-64
2023/06/29 11:01:54;;;;;;;14.07;2.80;;;;;;;29.02;34.33;99434.56;5032542;28;20190;-65
2023/06/29 11:04:22;;;;;;;3.17;1.70;;;;;;;29.31;34.28;99429.31;5032797;28;20237;-63
2023/06/29 11:06:50;;;;;;;4.10;1.77;;;;;;;29.79;34.69;99429.19;5031867;28;20255;-65
2023/06/29 11:09:18;;;;;;;3.03;2.03;;;;;;;30.02;33.08;99431.47;5031775;28;20197;-64
2023/06/29 11:11:47;;;;;;;10.90;2.30;;;;;;;30.17;32.99;99420.00;5032226;28;20200;-63
2023/06/29 11:14:14;;;;;;;2.27;1.57;;;;;;;30.49;31.35;99424.91;5032711;28;20205;-64
2023/06/29 11:16:40;;;;;;;1.57;1.57;;;;;;;30.61;31.97;99418.72;5031220;28;20190;-64
2023/06/29 11:19:07;;;;;;;1.60;1.50;;;;;;;30.48;31.26;99417.00;5032013;28;20735;-63
2023/06/29 11:21:34;;;;;;;2.87;1.83;;;;;;;30.37;31.60;99421.25;5030913;28;20193;-64
2023/06/29 11:24:02;;;;;;;2.80;1.80;;;;;;;30.41;32.47;99406.53;5031653;28;20197;-63
2023/06/29 11:26:29;;;;;;;5.47;1.50;;;;;;;30.52;32.74;99412.47;5031282;28;20197;-64
2023/06/29 11:28:56;;;;;;;1.70;1.60;;;;;;;30.47;31.62;99408.00;5032369;28;20198;-65
2023/06/29 11:31:23;;;;;;;1.73;1.63;;;;;;;30.22;32.08;99395.19;5031809;28;20225;-65
2023/06/29 11:33:51;;;;;;;3.03;1.60;;;;;;;30.49;32.38;99404.94;5032366;28;20197;-64